sensor_id;sensor_type;location;lat;lon;timestamp;pressure;altitude;pressure_sealevel;temperature;humidity
60646;BME280;46462;32.608;-117.032;2022-07-29T00:01:41;99057.59;;;29.78;43.87
60646;BME280;46462;32.608;-117.032;2022-07-29T00:04:11;99059.18;;;29.80;43.75
60646;BME280;46462;32.608;-117.032;2022-07-29T00:06:41;99061.89;;;29.84;43.74
60646;BME280;46462;32.608;-117.032;2022-07-29T00:09:11;99059.14;;;29.87;43.70
60646;BME280;46462;32.608;-117.032;2022-07-29T00:11:41;99062.14;;;29.90;43.67
60646;BME280;46462;32.608;-117.032;2022-07-29T00:14:11;99062.35;;;29.92;43.68
60646;BME280;46462;32.608;-117.032;2022-07-29T00:16:41;99061.77;;;29.95;43.62
60646;BME280;46462;32.608;-117.032;2022-07-29T00:19:11;99061.50;;;30.01;43.60
60646;BME280;46462;32.608;-117.032;2022-07-29T00:21:41;99062.47;;;30.03;43.49
60646;BME280;46462;32.608;-117.032;2022-07-29T00:24:11;99062.73;;;30.09;43.60
60646;BME280;46462;32.608;-117.032;2022-07-29T00:26:41;99063.85;;;30.04;43.92
60646;BME280;46462;32.608;-117.032;2022-07-29T00:29:11;99063.50;;;30.08;43.82
60646;BME280;46462;32.608;-117.032;2022-07-29T00:31:42;99058.91;;;30.13;43.62
60646;BME280;46462;32.608;-117.032;2022-07-29T00:34:12;99059.00;;;30.14;43.56
60646;BME280;46462;32.608;-117.032;2022-07-29T00:36:42;99057.28;;;30.17;43.50
60646;BME280;46462;32.608;-117.032;2022-07-29T00:39:12;99061.59;;;30.18;43.48
60646;BME280;46462;32.608;-117.032;2022-07-29T00:41:42;99067.48;;;30.21;43.46
60646;BME280;46462;32.608;-117.032;2022-07-29T00:44:12;99071.07;;;30.21;43.40
60646;BME280;46462;32.608;-117.032;2022-07-29T00:46:42;99074.39;;;30.24;43.33
60646;BME280;46462;32.608;-117.032;2022-07-29T00:49:13;99075.79;;;30.24;43.39
60646;BME280;46462;32.608;-117.032;2022-07-29T00:51:43;99075.89;;;30.26;43.34
60646;BME280;46462;32.608;-117.032;2022-07-29T00:54:13;99074.33;;;30.27;43.33
60646;BME280;46462;32.608;-117.032;2022-07-29T00:56:43;99074.47;;;30.30;43.30
60646;BME280;46462;32.608;-117.032;2022-07-29T00:59:13;99070.07;;;30.30;43.25
60646;BME280;46462;32.608;-117.032;2022-07-29T01:01:43;99065.71;;;30.32;43.20
60646;BME280;46462;32.608;-117.032;2022-07-29T01:04:13;99067.20;;;30.32;43.27
60646;BME280;46462;32.608;-117.032;2022-07-29T01:06:43;99071.54;;;30.34;43.16
60646;BME280;46462;32.608;-117.032;2022-07-29T01:09:13;99072.41;;;30.35;43.21
60646;BME280;46462;32.608;-117.032;2022-07-29T01:11:44;99072.11;;;30.36;43.23
60646;BME280;46462;32.608;-117.032;2022-07-29T01:14:14;99071.90;;;30.38;43.15
60646;BME280;46462;32.608;-117.032;2022-07-29T01:16:49;99073.61;;;30.39;43.09
60646;BME280;46462;32.608;-117.032;2022-07-29T01:19:25;99076.59;;;30.39;43.08
60646;BME280;46462;32.608;-117.032;2022-07-29T01:21:51;99075.03;;;30.39;43.08
60646;BME280;46462;32.608;-117.032;2022-07-29T01:26:49;99086.86;;;30.43;43.03
60646;BME280;46462;32.608;-117.032;2022-07-29T01:29:22;99091.06;;;30.42;43.05
60646;BME280;46462;32.608;-117.032;2022-07-29T01:31:48;99095.29;;;30.44;42.97
60646;BME280;46462;32.608;-117.032;2022-07-29T01:34:21;99095.50;;;30.43;43.02
60646;BME280;46462;32.608;-117.032;2022-07-29T01:36:48;99095.54;;;30.46;43.02
60646;BME280;46462;32.608;-117.032;2022-07-29T01:39:20;99094.49;;;30.45;43.07
60646;BME280;46462;32.608;-117.032;2022-07-29T01:41:50;99099.27;;;30.45;43.09
60646;BME280;46462;32.608;-117.032;2022-07-29T01:44:18;99105.56;;;30.45;43.09
60646;BME280;46462;32.608;-117.032;2022-07-29T01:46:50;99111.31;;;30.46;43.05
60646;BME280;46462;32.608;-117.032;2022-07-29T01:49:18;99120.30;;;30.45;43.11
60646;BME280;46462;32.608;-117.032;2022-07-29T01:51:49;99125.07;;;30.46;43.05
60646;BME280;46462;32.608;-117.032;2022-07-29T01:54:20;99128.25;;;30.45;43.05
60646;BME280;46462;32.608;-117.032;2022-07-29T01:56:48;99131.15;;;30.47;43.00
60646;BME280;46462;32.608;-117.032;2022-07-29T01:59:16;99133.84;;;30.46;42.99
60646;BME280;46462;32.608;-117.032;2022-07-29T02:01:47;99135.45;;;30.48;42.94
60646;BME280;46462;32.608;-117.032;2022-07-29T02:04:17;99139.42;;;30.48;42.93
60646;BME280;46462;32.608;-117.032;2022-07-29T02:06:48;99143.52;;;30.50;42.85
60646;BME280;46462;32.608;-117.032;2022-07-29T02:09:16;99147.93;;;30.51;42.78
60646;BME280;46462;32.608;-117.032;2022-07-29T02:11:50;99146.10;;;30.50;42.74
60646;BME280;46462;32.608;-117.032;2022-07-29T02:14:20;99143.62;;;30.51;42.69
60646;BME280;46462;32.608;-117.032;2022-07-29T02:16:48;99140.14;;;30.51;42.70
60646;BME280;46462;32.608;-117.032;2022-07-29T02:19:17;99140.60;;;30.49;42.72
60646;BME280;46462;32.608;-117.032;2022-07-29T02:21:47;99143.88;;;30.50;42.78
60646;BME280;46462;32.608;-117.032;2022-07-29T02:24:17;99142.72;;;30.50;42.78
60646;BME280;46462;32.608;-117.032;2022-07-29T02:26:48;99147.13;;;30.52;42.67
60646;BME280;46462;32.608;-117.032;2022-07-29T02:29:17;99147.84;;;30.49;42.76
60646;BME280;46462;32.608;-117.032;2022-07-29T02:31:49;99149.13;;;30.51;42.68
60646;BME280;46462;32.608;-117.032;2022-07-29T02:34:18;99151.24;;;30.49;42.77
60646;BME280;46462;32.608;-117.032;2022-07-29T02:36:48;99155.26;;;30.50;42.73
60646;BME280;46462;32.608;-117.032;2022-07-29T02:39:18;99161.88;;;30.49;42.72
60646;BME280;46462;32.608;-117.032;2022-07-29T02:41:48;99171.72;;;30.49;42.73
60646;BME280;46462;32.608;-117.032;2022-07-29T02:44:19;99181.18;;;30.48;42.78
60646;BME280;46462;32.608;-117.032;2022-07-29T02:46:50;99183.95;;;30.48;42.74
60646;BME280;46462;32.608;-117.032;2022-07-29T02:49:26;99185.79;;;30.48;42.76
60646;BME280;46462;32.608;-117.032;2022-07-29T02:51:53;99184.27;;;30.49;42.70
60646;BME280;46462;32.608;-117.032;2022-07-29T02:54:26;99179.47;;;30.49;42.67
60646;BME280;46462;32.608;-117.032;2022-07-29T02:56:48;99177.55;;;30.48;42.67
60646;BME280;46462;32.608;-117.032;2022-07-29T02:59:24;99178.16;;;30.47;42.76
60646;BME280;46462;32.608;-117.032;2022-07-29T03:01:48;99179.87;;;30.47;42.75
60646;BME280;46462;32.608;-117.032;2022-07-29T03:04:19;99185.15;;;30.45;42.79
60646;BME280;46462;32.608;-117.032;2022-07-29T03:06:49;99187.37;;;30.46;42.74
60646;BME280;46462;32.608;-117.032;2022-07-29T03:09:19;99189.62;;;30.47;42.69
60646;BME280;46462;32.608;-117.032;2022-07-29T03:11:49;99191.31;;;30.47;42.73
60646;BME280;46462;32.608;-117.032;2022-07-29T03:14:20;99188.28;;;30.46;42.74
60646;BME280;46462;32.608;-117.032;2022-07-29T03:16:49;99188.39;;;30.45;42.77
60646;BME280;46462;32.608;-117.032;2022-07-29T03:19:19;99191.45;;;30.44;42.86
60646;BME280;46462;32.608;-117.032;2022-07-29T03:21:49;99194.74;;;30.45;42.81
60646;BME280;46462;32.608;-117.032;2022-07-29T03:24:25;99201.19;;;30.43;42.91
60646;BME280;46462;32.608;-117.032;2022-07-29T03:26:49;99202.46;;;30.44;42.93
60646;BME280;46462;32.608;-117.032;2022-07-29T03:29:19;99204.68;;;30.44;42.87
60646;BME280;46462;32.608;-117.032;2022-07-29T03:31:49;99198.66;;;30.43;42.95
60646;BME280;46462;32.608;-117.032;2022-07-29T03:34:20;99198.25;;;30.40;42.97
60646;BME280;46462;32.608;-117.032;2022-07-29T03:36:49;99206.78;;;30.42;42.88
60646;BME280;46462;32.608;-117.032;2022-07-29T03:39:23;99220.00;;;30.40;42.94
60646;BME280;46462;32.608;-117.032;2022-07-29T03:41:53;99228.57;;;30.40;43.07
60646;BME280;46462;32.608;-117.032;2022-07-29T03:44:21;99231.10;;;30.36;43.11
60646;BME280;46462;32.608;-117.032;2022-07-29T03:46:51;99236.38;;;30.34;43.19
60646;BME280;46462;32.608;-117.032;2022-07-29T03:49:20;99238.74;;;30.36;43.14
60646;BME280;46462;32.608;-117.032;2022-07-29T03:51:50;99237.50;;;30.33;43.27
60646;BME280;46462;32.608;-117.032;2022-07-29T03:54:20;99235.10;;;30.34;43.18
60646;BME280;46462;32.608;-117.032;2022-07-29T03:56:52;99234.61;;;30.32;43.24
60646;BME280;46462;32.608;-117.032;2022-07-29T03:59:21;99238.61;;;30.32;43.24
60646;BME280;46462;32.608;-117.032;2022-07-29T04:01:51;99245.70;;;30.35;43.20
60646;BME280;46462;32.608;-117.032;2022-07-29T04:04:20;99250.41;;;30.35;43.23
60646;BME280;46462;32.608;-117.032;2022-07-29T04:06:50;99250.82;;;30.39;43.12
60646;BME280;46462;32.608;-117.032;2022-07-29T04:09:21;99255.49;;;30.39;43.09
60646;BME280;46462;32.608;-117.032;2022-07-29T04:11:51;99256.22;;;30.42;43.02
60646;BME280;46462;32.608;-117.032;2022-07-29T04:14:21;99257.53;;;30.35;43.20
60646;BME280;46462;32.608;-117.032;2022-07-29T04:16:51;99261.74;;;30.36;43.20
60646;BME280;46462;32.608;-117.032;2022-07-29T04:19:21;99265.16;;;30.35;43.25
60646;BME280;46462;32.608;-117.032;2022-07-29T04:21:51;99265.43;;;30.36;43.20
60646;BME280;46462;32.608;-117.032;2022-07-29T04:24:21;99267.12;;;30.34;43.25
60646;BME280;46462;32.608;-117.032;2022-07-29T04:26:51;99268.22;;;30.32;43.29
60646;BME280;46462;32.608;-117.032;2022-07-29T04:29:21;99264.15;;;30.31;43.35
60646;BME280;46462;32.608;-117.032;2022-07-29T04:31:51;99264.69;;;30.27;43.43
60646;BME280;46462;32.608;-117.032;2022-07-29T04:34:22;99261.67;;;30.27;43.40
60646;BME280;46462;32.608;-117.032;2022-07-29T04:36:52;99264.96;;;30.30;43.34
60646;BME280;46462;32.608;-117.032;2022-07-29T04:39:22;99268.74;;;30.30;43.30
60646;BME280;46462;32.608;-117.032;2022-07-29T04:41:52;99276.66;;;30.30;43.34
60646;BME280;46462;32.608;-117.032;2022-07-29T04:44:22;99274.93;;;30.25;43.51
60646;BME280;46462;32.608;-117.032;2022-07-29T04:46:52;99269.72;;;30.21;43.50
60646;BME280;46462;32.608;-117.032;2022-07-29T04:49:22;99265.06;;;30.20;43.55
60646;BME280;46462;32.608;-117.032;2022-07-29T04:51:52;99262.18;;;30.23;43.49
60646;BME280;46462;32.608;-117.032;2022-07-29T04:54:22;99261.07;;;30.23;43.44
60646;BME280;46462;32.608;-117.032;2022-07-29T04:56:52;99256.57;;;30.18;43.52
60646;BME280;46462;32.608;-117.032;2022-07-29T04:59:23;99258.07;;;30.18;43.49
60646;BME280;46462;32.608;-117.032;2022-07-29T05:01:53;99260.76;;;30.13;43.76
60646;BME280;46462;32.608;-117.032;2022-07-29T05:04:23;99265.89;;;30.13;43.58
60646;BME280;46462;32.608;-117.032;2022-07-29T05:06:53;99277.86;;;30.14;43.58
60646;BME280;46462;32.608;-117.032;2022-07-29T05:09:23;99285.81;;;30.14;43.57
60646;BME280;46462;32.608;-117.032;2022-07-29T05:11:53;99284.41;;;30.12;43.70
60646;BME280;46462;32.608;-117.032;2022-07-29T05:14:23;99278.38;;;30.14;43.53
60646;BME280;46462;32.608;-117.032;2022-07-29T05:16:53;99275.20;;;30.14;43.53
60646;BME280;46462;32.608;-117.032;2022-07-29T05:19:23;99275.17;;;30.09;43.58
60646;BME280;46462;32.608;-117.032;2022-07-29T05:21:53;99267.24;;;30.09;43.65
60646;BME280;46462;32.608;-117.032;2022-07-29T05:24:23;99261.39;;;30.11;43.47
60646;BME280;46462;32.608;-117.032;2022-07-29T05:26:54;99255.65;;;30.08;43.55
60646;BME280;46462;32.608;-117.032;2022-07-29T05:29:24;99251.32;;;30.08;43.60
60646;BME280;46462;32.608;-117.032;2022-07-29T05:31:54;99246.75;;;30.14;43.34
60646;BME280;46462;32.608;-117.032;2022-07-29T05:34:24;99238.96;;;30.16;43.28
60646;BME280;46462;32.608;-117.032;2022-07-29T05:36:54;99235.23;;;30.13;43.34
60646;BME280;46462;32.608;-117.032;2022-07-29T05:39:24;99231.52;;;30.09;43.45
60646;BME280;46462;32.608;-117.032;2022-07-29T05:41:54;99233.41;;;30.11;43.33
60646;BME280;46462;32.608;-117.032;2022-07-29T05:44:24;99233.16;;;30.09;43.49
60646;BME280;46462;32.608;-117.032;2022-07-29T05:46:54;99238.13;;;30.11;43.34
60646;BME280;46462;32.608;-117.032;2022-07-29T05:49:25;99239.43;;;30.10;43.33
60646;BME280;46462;32.608;-117.032;2022-07-29T05:51:55;99233.02;;;30.05;43.45
60646;BME280;46462;32.608;-117.032;2022-07-29T05:54:25;99229.65;;;30.09;43.36
60646;BME280;46462;32.608;-117.032;2022-07-29T05:56:55;99239.69;;;30.05;43.40
60646;BME280;46462;32.608;-117.032;2022-07-29T05:59:25;99254.73;;;30.01;43.51
60646;BME280;46462;32.608;-117.032;2022-07-29T06:01:55;99256.09;;;29.98;43.58
60646;BME280;46462;32.608;-117.032;2022-07-29T06:04:25;99244.97;;;30.00;43.49
60646;BME280;46462;32.608;-117.032;2022-07-29T06:06:55;99235.12;;;30.03;43.39
60646;BME280;46462;32.608;-117.032;2022-07-29T06:09:25;99237.24;;;30.02;43.41
60646;BME280;46462;32.608;-117.032;2022-07-29T06:11:56;99252.84;;;30.04;43.35
60646;BME280;46462;32.608;-117.032;2022-07-29T06:14:26;99253.36;;;30.00;43.43
60646;BME280;46462;32.608;-117.032;2022-07-29T06:16:56;99243.75;;;30.01;43.36
60646;BME280;46462;32.608;-117.032;2022-07-29T06:19:26;99236.60;;;29.94;43.49
60646;BME280;46462;32.608;-117.032;2022-07-29T06:21:56;99238.89;;;29.89;43.65
60646;BME280;46462;32.608;-117.032;2022-07-29T06:24:26;99246.58;;;29.93;43.50
60646;BME280;46462;32.608;-117.032;2022-07-29T06:26:56;99241.96;;;29.94;43.44
60646;BME280;46462;32.608;-117.032;2022-07-29T06:29:26;99232.44;;;29.91;43.49
60646;BME280;46462;32.608;-117.032;2022-07-29T06:31:56;99220.75;;;29.92;43.46
60646;BME280;46462;32.608;-117.032;2022-07-29T06:34:27;99218.86;;;29.92;43.42
60646;BME280;46462;32.608;-117.032;2022-07-29T06:36:57;99227.69;;;29.91;43.40
60646;BME280;46462;32.608;-117.032;2022-07-29T06:39:27;99240.17;;;29.85;43.57
60646;BME280;46462;32.608;-117.032;2022-07-29T06:41:57;99248.54;;;29.88;43.44
60646;BME280;46462;32.608;-117.032;2022-07-29T06:44:27;99241.77;;;29.91;43.33
60646;BME280;46462;32.608;-117.032;2022-07-29T06:46:57;99235.60;;;29.89;43.32
60646;BME280;46462;32.608;-117.032;2022-07-29T06:49:27;99234.04;;;29.84;43.46
60646;BME280;46462;32.608;-117.032;2022-07-29T06:51:57;99238.70;;;29.76;43.66
60646;BME280;46462;32.608;-117.032;2022-07-29T06:54:27;99237.07;;;29.76;43.57
60646;BME280;46462;32.608;-117.032;2022-07-29T06:56:57;99235.67;;;29.74;43.67
60646;BME280;46462;32.608;-117.032;2022-07-29T06:59:28;99239.68;;;29.75;43.61
60646;BME280;46462;32.608;-117.032;2022-07-29T07:01:58;99241.18;;;29.78;43.48
60646;BME280;46462;32.608;-117.032;2022-07-29T07:04:28;99236.99;;;29.72;43.58
60646;BME280;46462;32.608;-117.032;2022-07-29T07:06:58;99232.37;;;29.69;43.62
60646;BME280;46462;32.608;-117.032;2022-07-29T07:09:28;99234.96;;;29.64;43.74
60646;BME280;46462;32.608;-117.032;2022-07-29T07:11:58;99233.23;;;29.71;43.52
60646;BME280;46462;32.608;-117.032;2022-07-29T07:14:28;99230.40;;;29.70;43.50
60646;BME280;46462;32.608;-117.032;2022-07-29T07:16:58;99230.81;;;29.68;43.57
60646;BME280;46462;32.608;-117.032;2022-07-29T07:19:28;99233.32;;;29.64;43.62
60646;BME280;46462;32.608;-117.032;2022-07-29T07:21:59;99232.69;;;29.59;43.72
60646;BME280;46462;32.608;-117.032;2022-07-29T07:24:29;99230.26;;;29.56;43.80
60646;BME280;46462;32.608;-117.032;2022-07-29T07:26:59;99236.19;;;29.62;43.58
60646;BME280;46462;32.608;-117.032;2022-07-29T07:29:29;99236.75;;;29.62;43.53
60646;BME280;46462;32.608;-117.032;2022-07-29T07:31:59;99236.35;;;29.59;43.59
60646;BME280;46462;32.608;-117.032;2022-07-29T07:34:29;99239.31;;;29.58;43.53
60646;BME280;46462;32.608;-117.032;2022-07-29T07:36:59;99243.13;;;29.58;43.55
60646;BME280;46462;32.608;-117.032;2022-07-29T07:39:29;99240.61;;;29.57;43.51
60646;BME280;46462;32.608;-117.032;2022-07-29T07:41:59;99241.50;;;29.55;43.48
60646;BME280;46462;32.608;-117.032;2022-07-29T07:44:29;99245.30;;;29.50;43.60
60646;BME280;46462;32.608;-117.032;2022-07-29T07:46:59;99241.88;;;29.56;43.42
60646;BME280;46462;32.608;-117.032;2022-07-29T07:49:30;99236.15;;;29.51;43.50
60646;BME280;46462;32.608;-117.032;2022-07-29T07:52:00;99229.31;;;29.55;43.39
60646;BME280;46462;32.608;-117.032;2022-07-29T07:54:30;99222.97;;;29.56;43.31
60646;BME280;46462;32.608;-117.032;2022-07-29T07:57:00;99212.78;;;29.54;43.34
60646;BME280;46462;32.608;-117.032;2022-07-29T07:59:30;99209.46;;;29.53;43.35
60646;BME280;46462;32.608;-117.032;2022-07-29T08:02:00;99218.27;;;29.52;43.32
60646;BME280;46462;32.608;-117.032;2022-07-29T08:04:31;99220.53;;;29.48;43.36
60646;BME280;46462;32.608;-117.032;2022-07-29T08:07:01;99217.24;;;29.53;43.24
60646;BME280;46462;32.608;-117.032;2022-07-29T08:09:31;99216.80;;;29.50;43.26
60646;BME280;46462;32.608;-117.032;2022-07-29T08:12:01;99215.73;;;29.51;43.16
60646;BME280;46462;32.608;-117.032;2022-07-29T08:14:31;99213.82;;;29.55;43.07
60646;BME280;46462;32.608;-117.032;2022-07-29T08:17:01;99217.48;;;29.58;42.92
60646;BME280;46462;32.608;-117.032;2022-07-29T08:19:31;99217.82;;;29.57;42.94
60646;BME280;46462;32.608;-117.032;2022-07-29T08:22:01;99217.08;;;29.51;43.01
60646;BME280;46462;32.608;-117.032;2022-07-29T08:24:31;99216.14;;;29.52;42.98
60646;BME280;46462;32.608;-117.032;2022-07-29T08:27:01;99211.22;;;29.53;42.93
60646;BME280;46462;32.608;-117.032;2022-07-29T08:29:31;99204.74;;;29.54;42.85
60646;BME280;46462;32.608;-117.032;2022-07-29T08:32:02;99200.98;;;29.53;42.83
60646;BME280;46462;32.608;-117.032;2022-07-29T08:34:32;99199.84;;;29.51;42.86
60646;BME280;46462;32.608;-117.032;2022-07-29T08:37:02;99195.04;;;29.56;42.68
60646;BME280;46462;32.608;-117.032;2022-07-29T08:39:32;99194.07;;;29.54;42.71
60646;BME280;46462;32.608;-117.032;2022-07-29T08:42:02;99196.48;;;29.52;42.72
60646;BME280;46462;32.608;-117.032;2022-07-29T08:44:33;99201.85;;;29.49;42.78
60646;BME280;46462;32.608;-117.032;2022-07-29T08:47:02;99208.11;;;29.46;42.79
60646;BME280;46462;32.608;-117.032;2022-07-29T08:49:34;99204.67;;;29.45;42.77
60646;BME280;46462;32.608;-117.032;2022-07-29T08:52:03;99199.33;;;29.47;42.73
60646;BME280;46462;32.608;-117.032;2022-07-29T08:54:33;99196.38;;;29.41;42.82
60646;BME280;46462;32.608;-117.032;2022-07-29T08:57:03;99192.82;;;29.44;42.73
60646;BME280;46462;32.608;-117.032;2022-07-29T08:59:34;99203.80;;;29.41;42.75
60646;BME280;46462;32.608;-117.032;2022-07-29T09:02:04;99201.60;;;29.40;42.72
60646;BME280;46462;32.608;-117.032;2022-07-29T09:04:35;99193.82;;;29.34;42.87
60646;BME280;46462;32.608;-117.032;2022-07-29T09:07:04;99184.20;;;29.42;42.60
60646;BME280;46462;32.608;-117.032;2022-07-29T09:09:34;99184.81;;;29.36;42.74
60646;BME280;46462;32.608;-117.032;2022-07-29T09:12:04;99183.86;;;29.34;42.76
60646;BME280;46462;32.608;-117.032;2022-07-29T09:14:33;99178.84;;;29.34;42.73
60646;BME280;46462;32.608;-117.032;2022-07-29T09:17:04;99177.34;;;29.32;42.75
60646;BME280;46462;32.608;-117.032;2022-07-29T09:19:36;99169.02;;;29.34;42.66
60646;BME280;46462;32.608;-117.032;2022-07-29T09:22:05;99163.30;;;29.32;42.68
60646;BME280;46462;32.608;-117.032;2022-07-29T09:24:40;99163.11;;;29.29;42.69
60646;BME280;46462;32.608;-117.032;2022-07-29T09:27:09;99165.61;;;29.27;42.71
60646;BME280;46462;32.608;-117.032;2022-07-29T09:29:34;99163.57;;;29.27;42.69
60646;BME280;46462;32.608;-117.032;2022-07-29T09:32:08;99159.35;;;29.30;42.60
60646;BME280;46462;32.608;-117.032;2022-07-29T09:34:34;99156.42;;;29.27;42.62
60646;BME280;46462;32.608;-117.032;2022-07-29T09:37:05;99162.35;;;29.24;42.64
60646;BME280;46462;32.608;-117.032;2022-07-29T09:39:38;99166.69;;;29.25;42.61
60646;BME280;46462;32.608;-117.032;2022-07-29T09:42:06;99164.26;;;29.27;42.55
60646;BME280;46462;32.608;-117.032;2022-07-29T09:44:41;99159.66;;;29.20;42.65
60646;BME280;46462;32.608;-117.032;2022-07-29T09:47:05;99160.99;;;29.18;42.68
60646;BME280;46462;32.608;-117.032;2022-07-29T09:49:36;99171.41;;;29.17;42.69
60646;BME280;46462;32.608;-117.032;2022-07-29T09:52:07;99175.88;;;29.19;42.60
60646;BME280;46462;32.608;-117.032;2022-07-29T09:54:36;99173.13;;;29.17;42.63
60646;BME280;46462;32.608;-117.032;2022-07-29T09:57:07;99166.52;;;29.21;42.45
60646;BME280;46462;32.608;-117.032;2022-07-29T09:59:36;99166.70;;;29.19;42.47
60646;BME280;46462;32.608;-117.032;2022-07-29T10:02:11;99168.61;;;29.17;42.54
60646;BME280;46462;32.608;-117.032;2022-07-29T10:04:40;99165.42;;;29.17;42.43
60646;BME280;46462;32.608;-117.032;2022-07-29T10:07:06;99158.16;;;29.13;42.46
60646;BME280;46462;32.608;-117.032;2022-07-29T10:09:36;99156.70;;;29.04;42.65
60646;BME280;46462;32.608;-117.032;2022-07-29T10:12:10;99159.37;;;29.13;42.47
60646;BME280;46462;32.608;-117.032;2022-07-29T10:14:37;99161.69;;;29.11;42.41
60646;BME280;46462;32.608;-117.032;2022-07-29T10:17:08;99161.14;;;29.10;42.34
60646;BME280;46462;32.608;-117.032;2022-07-29T10:19:38;99154.06;;;29.09;42.44
60646;BME280;46462;32.608;-117.032;2022-07-29T10:22:09;99147.02;;;29.04;42.48
60646;BME280;46462;32.608;-117.032;2022-07-29T10:24:38;99143.91;;;28.99;42.57
60646;BME280;46462;32.608;-117.032;2022-07-29T10:27:08;99150.60;;;29.04;42.40
60646;BME280;46462;32.608;-117.032;2022-07-29T10:29:37;99157.22;;;29.04;42.40
60646;BME280;46462;32.608;-117.032;2022-07-29T10:32:16;99155.78;;;28.98;42.57
60646;BME280;46462;32.608;-117.032;2022-07-29T10:34:48;99146.58;;;28.98;42.53
60646;BME280;46462;32.608;-117.032;2022-07-29T10:37:14;99140.99;;;28.98;42.36
60646;BME280;46462;32.608;-117.032;2022-07-29T10:39:47;99140.98;;;28.93;42.49
60646;BME280;46462;32.608;-117.032;2022-07-29T10:42:14;99140.73;;;28.99;42.36
60646;BME280;46462;32.608;-117.032;2022-07-29T10:44:40;99136.29;;;29.00;42.34
60646;BME280;46462;32.608;-117.032;2022-07-29T10:47:08;99135.20;;;28.99;42.30
60646;BME280;46462;32.608;-117.032;2022-07-29T10:49:38;99137.97;;;28.98;42.29
60646;BME280;46462;32.608;-117.032;2022-07-29T10:52:09;99142.11;;;28.96;42.24
60646;BME280;46462;32.608;-117.032;2022-07-29T10:54:40;99148.34;;;28.91;42.40
60646;BME280;46462;32.608;-117.032;2022-07-29T10:57:14;99150.44;;;28.91;42.33
60646;BME280;46462;32.608;-117.032;2022-07-29T10:59:39;99145.48;;;28.98;42.13
60646;BME280;46462;32.608;-117.032;2022-07-29T11:07:09;99148.63;;;28.94;42.17
60646;BME280;46462;32.608;-117.032;2022-07-29T11:09:39;99147.76;;;28.92;42.21
60646;BME280;46462;32.608;-117.032;2022-07-29T11:17:09;99156.88;;;28.88;42.20
60646;BME280;46462;32.608;-117.032;2022-07-29T11:19:40;99160.10;;;28.90;42.10
60646;BME280;46462;32.608;-117.032;2022-07-29T11:22:10;99156.39;;;28.92;42.05
60646;BME280;46462;32.608;-117.032;2022-07-29T11:24:40;99159.60;;;28.90;42.13
60646;BME280;46462;32.608;-117.032;2022-07-29T11:27:14;99158.03;;;28.89;42.01
60646;BME280;46462;32.608;-117.032;2022-07-29T11:29:50;99150.37;;;28.86;42.04
60646;BME280;46462;32.608;-117.032;2022-07-29T11:32:11;99153.79;;;28.87;42.02
60646;BME280;46462;32.608;-117.032;2022-07-29T11:34:40;99162.21;;;28.89;41.93
60646;BME280;46462;32.608;-117.032;2022-07-29T11:37:16;99166.20;;;28.89;41.89
60646;BME280;46462;32.608;-117.032;2022-07-29T11:39:42;99168.82;;;28.83;41.93
60646;BME280;46462;32.608;-117.032;2022-07-29T11:47:11;99165.61;;;28.73;42.15
60646;BME280;46462;32.608;-117.032;2022-07-29T11:49:44;99167.30;;;28.80;41.94
60646;BME280;46462;32.608;-117.032;2022-07-29T11:52:11;99159.88;;;28.81;41.83
60646;BME280;46462;32.608;-117.032;2022-07-29T11:54:43;99152.80;;;28.79;41.89
60646;BME280;46462;32.608;-117.032;2022-07-29T11:57:11;99152.54;;;28.72;41.96
60646;BME280;46462;32.608;-117.032;2022-07-29T11:59:43;99155.02;;;28.69;42.06
60646;BME280;46462;32.608;-117.032;2022-07-29T12:02:13;99158.98;;;28.70;42.10
60646;BME280;46462;32.608;-117.032;2022-07-29T12:04:49;99160.69;;;28.71;41.96
60646;BME280;46462;32.608;-117.032;2022-07-29T12:07:12;99153.44;;;28.76;41.78
60646;BME280;46462;32.608;-117.032;2022-07-29T12:09:49;99160.58;;;28.69;41.83
60646;BME280;46462;32.608;-117.032;2022-07-29T12:12:16;99184.53;;;28.75;41.74
60646;BME280;46462;32.608;-117.032;2022-07-29T12:14:42;99198.56;;;28.75;41.75
60646;BME280;46462;32.608;-117.032;2022-07-29T12:19:43;99183.82;;;28.76;41.68
60646;BME280;46462;32.608;-117.032;2022-07-29T12:22:13;99182.55;;;28.73;41.71
60646;BME280;46462;32.608;-117.032;2022-07-29T12:24:44;99182.67;;;28.75;41.63
60646;BME280;46462;32.608;-117.032;2022-07-29T12:27:17;99174.94;;;28.73;41.63
60646;BME280;46462;32.608;-117.032;2022-07-29T12:29:43;99166.03;;;28.68;41.74
60646;BME280;46462;32.608;-117.032;2022-07-29T12:32:13;99166.59;;;28.67;41.79
60646;BME280;46462;32.608;-117.032;2022-07-29T12:34:43;99170.97;;;28.66;41.70
60646;BME280;46462;32.608;-117.032;2022-07-29T12:37:13;99175.98;;;28.62;41.76
60646;BME280;46462;32.608;-117.032;2022-07-29T12:39:44;99163.47;;;28.67;41.65
60646;BME280;46462;32.608;-117.032;2022-07-29T12:42:15;99146.85;;;28.65;41.63
60646;BME280;46462;32.608;-117.032;2022-07-29T12:44:46;99144.06;;;28.65;41.68
60646;BME280;46462;32.608;-117.032;2022-07-29T12:47:14;99143.09;;;28.61;41.82
60646;BME280;46462;32.608;-117.032;2022-07-29T12:49:44;99145.74;;;28.61;41.76
60646;BME280;46462;32.608;-117.032;2022-07-29T12:54:48;99155.81;;;28.52;41.93
60646;BME280;46462;32.608;-117.032;2022-07-29T12:57:14;99169.21;;;28.53;41.91
60646;BME280;46462;32.608;-117.032;2022-07-29T12:59:44;99180.56;;;28.48;41.96
60646;BME280;46462;32.608;-117.032;2022-07-29T13:02:22;99182.93;;;28.52;41.86
60646;BME280;46462;32.608;-117.032;2022-07-29T13:07:23;99208.31;;;28.59;41.64
60646;BME280;46462;32.608;-117.032;2022-07-29T13:09:45;99214.75;;;28.61;41.59